Subang, Malaysia

11:39 AM MYT on August 02, 2014 (GMT +0800)
Kuala Lumpur International -Sepang (WMKK) Elev 69 ft | 2.75 °N, 101.71 °E | Change Station

Current weather conditions updated 9 minutes ago

Mostly Cloudy
Mostly Cloudy
88 °F
Feels Like 100 °F
N
7
Wind Variable Wind from South

Today is forecast to be Cooler than yesterday. Showers and thunderstorms.

Today
High -- | Low -- °F
--% Chance of Precip.
Yesterday
High -- | Low -- °F
Precip. -- in
7:12 AM 7:27 PM
Waxing Crescent, 32% visible
Pressure 29.83 in
Visibility 6.2 miles
Clouds Scattered Clouds 1800 ft
Mostly Cloudy 28000 ft
Heat Index 100 °F
Dew Point 77 °F
Humidity 70%
Rainfall 0.00 in
Snow Depth Not available.
UV 7 out of 12
Pollen Not available.
Air Quality Not available.
Flu Activity Not available.
METAR WMKK 020330Z 17006KT 120V240 9999 SCT018 BKN280 31/25 Q1010 NOSIG

More Conditions Fewer Conditions

Pressure 29.83 in
Visibility 6.2 miles
Clouds Scattered Clouds 1800 ft
Mostly Cloudy 28000 ft
Heat Index 100 °F
Dew Point 77 °F
Humidity 70%
Rainfall 0.00 in
Snow Depth Not available.
UV 7 out of 12
Pollen Not available.
Air Quality Not available.
Flu Activity Not available.
METAR WMKK 020330Z 17006KT 120V240 9999 SCT018 BKN280 31/25 Q1010 NOSIG

More Conditions Fewer Conditions

10-Day Weather Forecast

Almanac

Astronomy

Aug. 02, 2014 Rise Set
Actual Time 7:12 AM MYT 7:27 PM MYT
Civil Twilight 6:50 AM MYT 7:49 PM MYT
Nautical Twilight 6:25 AM MYT 8:14 PM MYT
Astronomical Twilight 5:59 AM MYT 8:40 PM MYT
Moon 11:39 AM MYT 11:57 PM MYT
Length of Visible Light 12h 58m
Length of Day
12h 14m
Tomorrow will be 0m 9s shorter.
Waxing Crescent, 32% of the Moon is Illuminated
Aug 1
Waxing Crescent
Aug 3
First Quarter
Aug 10
Full
Aug 17
Last Quarter
Aug 25
New

Yesterday's Extremes

Country Highs Country Lows

Community

WunderPhotos

Upload Photos

1,739,826 photos uploaded!

Nearby

Snow Depth

Not available.

Earthquake Activity

City Distance Mag. Time & Date
No recent earthquake activity has been reported nearby.
Minimum magnitude displayed is 2.5.

Coastal Water Temperatures

Place Temperature
No Stations Reporting

Nearby Weather Stations

There are no personal weather stations in this area.